sensor_id;sensor_type;location;lat;lon;timestamp;temperature;humidity
5806;DHT22;2929;50.810;8.342;2024-03-08T00:00:21;0.50;99.90
5806;DHT22;2929;50.810;8.342;2024-03-08T00:02:48;0.40;99.90
5806;DHT22;2929;50.810;8.342;2024-03-08T00:05:17;0.30;99.90
5806;DHT22;2929;50.810;8.342;2024-03-08T00:07:44;0.20;99.90
5806;DHT22;2929;50.810;8.342;2024-03-08T00:10:12;0.40;99.90
5806;DHT22;2929;50.810;8.342;2024-03-08T00:12:40;0.40;99.90
5806;DHT22;2929;50.810;8.342;2024-03-08T00:15:08;0.40;99.90
5806;DHT22;2929;50.810;8.342;2024-03-08T00:17:38;0.40;99.90
5806;DHT22;2929;50.810;8.342;2024-03-08T00:20:06;0.40;99.90
5806;DHT22;2929;50.810;8.342;2024-03-08T00:22:36;0.40;99.90
5806;DHT22;2929;50.810;8.342;2024-03-08T00:25:06;0.40;99.90
5806;DHT22;2929;50.810;8.342;2024-03-08T00:27:34;0.40;99.90
5806;DHT22;2929;50.810;8.342;2024-03-08T00:30:01;0.40;99.90
5806;DHT22;2929;50.810;8.342;2024-03-08T00:32:29;0.40;99.90
5806;DHT22;2929;50.810;8.342;2024-03-08T00:34:57;0.30;99.90
5806;DHT22;2929;50.810;8.342;2024-03-08T00:37:24;0.30;99.90
5806;DHT22;2929;50.810;8.342;2024-03-08T00:39:53;0.20;99.90
5806;DHT22;2929;50.810;8.342;2024-03-08T00:42:20;0.20;99.90
5806;DHT22;2929;50.810;8.342;2024-03-08T00:44:47;0.20;99.90
5806;DHT22;2929;50.810;8.342;2024-03-08T00:47:16;0.10;99.90
5806;DHT22;2929;50.810;8.342;2024-03-08T00:49:43;0.10;99.90
5806;DHT22;2929;50.810;8.342;2024-03-08T00:52:10;-0.10;99.90
5806;DHT22;2929;50.810;8.342;2024-03-08T00:54:37;0.00;99.90
5806;DHT22;2929;50.810;8.342;2024-03-08T00:57:06;0.00;99.90
5806;DHT22;2929;50.810;8.342;2024-03-08T00:59:33;0.10;99.90
5806;DHT22;2929;50.810;8.342;2024-03-08T01:02:00;0.20;99.90
5806;DHT22;2929;50.810;8.342;2024-03-08T01:04:27;0.10;99.90
5806;DHT22;2929;50.810;8.342;2024-03-08T01:06:55;0.20;99.90
5806;DHT22;2929;50.810;8.342;2024-03-08T01:09:23;0.20;99.90
5806;DHT22;2929;50.810;8.342;2024-03-08T01:11:50;0.20;99.90
5806;DHT22;2929;50.810;8.342;2024-03-08T01:14:18;0.20;99.90
5806;DHT22;2929;50.810;8.342;2024-03-08T01:16:45;0.20;99.90
5806;DHT22;2929;50.810;8.342;2024-03-08T01:19:12;0.10;99.90
5806;DHT22;2929;50.810;8.342;2024-03-08T01:21:39;0.00;99.90
5806;DHT22;2929;50.810;8.342;2024-03-08T01:24:06;0.00;99.90
5806;DHT22;2929;50.810;8.342;2024-03-08T01:26:33;0.00;99.90
5806;DHT22;2929;50.810;8.342;2024-03-08T01:29:00;0.20;99.90
5806;DHT22;2929;50.810;8.342;2024-03-08T01:31:30;0.20;99.90
5806;DHT22;2929;50.810;8.342;2024-03-08T01:33:57;0.30;99.90
5806;DHT22;2929;50.810;8.342;2024-03-08T01:36:24;0.20;99.90
5806;DHT22;2929;50.810;8.342;2024-03-08T01:38:51;0.20;99.90
5806;DHT22;2929;50.810;8.342;2024-03-08T01:41:18;0.10;99.90
5806;DHT22;2929;50.810;8.342;2024-03-08T01:43:46;0.00;99.90
5806;DHT22;2929;50.810;8.342;2024-03-08T01:46:17;0.10;99.90
5806;DHT22;2929;50.810;8.342;2024-03-08T01:48:45;-0.10;99.90
5806;DHT22;2929;50.810;8.342;2024-03-08T01:51:13;-0.20;99.90
5806;DHT22;2929;50.810;8.342;2024-03-08T01:53:42;-0.10;99.90
5806;DHT22;2929;50.810;8.342;2024-03-08T01:56:11;-0.20;99.90
5806;DHT22;2929;50.810;8.342;2024-03-08T01:58:40;-0.40;99.90
5806;DHT22;2929;50.810;8.342;2024-03-08T02:01:10;-0.50;99.90
5806;DHT22;2929;50.810;8.342;2024-03-08T02:03:39;-0.50;99.90
5806;DHT22;2929;50.810;8.342;2024-03-08T02:06:07;-0.60;99.90
5806;DHT22;2929;50.810;8.342;2024-03-08T02:08:36;-0.70;99.90
5806;DHT22;2929;50.810;8.342;2024-03-08T02:11:04;-0.70;99.90
5806;DHT22;2929;50.810;8.342;2024-03-08T02:13:31;-0.60;99.90
5806;DHT22;2929;50.810;8.342;2024-03-08T02:16:00;-0.60;99.90
5806;DHT22;2929;50.810;8.342;2024-03-08T02:18:28;-0.50;99.90
5806;DHT22;2929;50.810;8.342;2024-03-08T02:20:58;-0.60;99.90
5806;DHT22;2929;50.810;8.342;2024-03-08T02:23:26;-0.30;99.90
5806;DHT22;2929;50.810;8.342;2024-03-08T02:25:54;-0.30;99.90
5806;DHT22;2929;50.810;8.342;2024-03-08T02:28:22;-0.30;99.90
5806;DHT22;2929;50.810;8.342;2024-03-08T02:30:49;-0.20;99.90
5806;DHT22;2929;50.810;8.342;2024-03-08T02:33:20;-0.10;99.90
5806;DHT22;2929;50.810;8.342;2024-03-08T02:35:47;-0.10;99.90
5806;DHT22;2929;50.810;8.342;2024-03-08T02:38:17;-0.10;99.90
5806;DHT22;2929;50.810;8.342;2024-03-08T02:40:44;-0.10;99.90
5806;DHT22;2929;50.810;8.342;2024-03-08T02:43:12;-0.10;99.90
5806;DHT22;2929;50.810;8.342;2024-03-08T02:45:40;-0.30;99.90
5806;DHT22;2929;50.810;8.342;2024-03-08T02:48:08;-0.30;99.90
5806;DHT22;2929;50.810;8.342;2024-03-08T02:50:35;-0.30;99.90
5806;DHT22;2929;50.810;8.342;2024-03-08T02:53:02;-0.30;99.90
5806;DHT22;2929;50.810;8.342;2024-03-08T02:55:30;-0.20;99.90
5806;DHT22;2929;50.810;8.342;2024-03-08T02:57:59;-0.10;99.90
5806;DHT22;2929;50.810;8.342;2024-03-08T03:00:26;-0.10;99.90
5806;DHT22;2929;50.810;8.342;2024-03-08T03:02:54;-0.20;99.90
5806;DHT22;2929;50.810;8.342;2024-03-08T03:05:21;-0.20;99.90
5806;DHT22;2929;50.810;8.342;2024-03-08T03:07:49;-0.20;99.90
5806;DHT22;2929;50.810;8.342;2024-03-08T03:10:16;-0.10;99.90
5806;DHT22;2929;50.810;8.342;2024-03-08T03:12:48;-0.30;99.90
5806;DHT22;2929;50.810;8.342;2024-03-08T03:15:18;-0.50;99.90
5806;DHT22;2929;50.810;8.342;2024-03-08T03:17:51;-0.60;99.90
5806;DHT22;2929;50.810;8.342;2024-03-08T03:20:18;-0.70;99.90
5806;DHT22;2929;50.810;8.342;2024-03-08T03:22:52;-0.80;99.90
5806;DHT22;2929;50.810;8.342;2024-03-08T03:25:19;-1.00;99.90
5806;DHT22;2929;50.810;8.342;2024-03-08T03:27:52;-1.00;99.90
5806;DHT22;2929;50.810;8.342;2024-03-08T03:30:22;-1.00;99.90
5806;DHT22;2929;50.810;8.342;2024-03-08T03:32:49;-1.00;99.90
5806;DHT22;2929;50.810;8.342;2024-03-08T03:35:16;-1.00;99.90
5806;DHT22;2929;50.810;8.342;2024-03-08T03:37:44;-1.10;99.90
5806;DHT22;2929;50.810;8.342;2024-03-08T03:40:27;-1.10;99.90
5806;DHT22;2929;50.810;8.342;2024-03-08T03:42:55;-1.20;99.90
5806;DHT22;2929;50.810;8.342;2024-03-08T03:45:22;-1.30;99.90
5806;DHT22;2929;50.810;8.342;2024-03-08T03:47:50;-1.30;99.90
5806;DHT22;2929;50.810;8.342;2024-03-08T03:50:17;-1.30;99.90
5806;DHT22;2929;50.810;8.342;2024-03-08T03:52:45;-1.30;99.90
5806;DHT22;2929;50.810;8.342;2024-03-08T03:55:12;-1.30;99.90
5806;DHT22;2929;50.810;8.342;2024-03-08T03:57:40;-1.40;99.90
5806;DHT22;2929;50.810;8.342;2024-03-08T04:00:09;-1.50;99.90
5806;DHT22;2929;50.810;8.342;2024-03-08T04:02:40;-1.50;99.90
5806;DHT22;2929;50.810;8.342;2024-03-08T04:05:08;-1.50;99.90
5806;DHT22;2929;50.810;8.342;2024-03-08T04:07:35;-1.50;99.90
5806;DHT22;2929;50.810;8.342;2024-03-08T04:10:06;-1.50;99.90
5806;DHT22;2929;50.810;8.342;2024-03-08T04:12:33;-1.50;99.90
5806;DHT22;2929;50.810;8.342;2024-03-08T04:15:01;-1.60;99.90
5806;DHT22;2929;50.810;8.342;2024-03-08T04:17:29;-1.60;99.90
5806;DHT22;2929;50.810;8.342;2024-03-08T04:19:56;-1.60;99.90
5806;DHT22;2929;50.810;8.342;2024-03-08T04:22:23;-1.60;99.90
5806;DHT22;2929;50.810;8.342;2024-03-08T04:24:52;-1.60;99.90
5806;DHT22;2929;50.810;8.342;2024-03-08T04:27:19;-1.50;99.90
5806;DHT22;2929;50.810;8.342;2024-03-08T04:29:46;-1.60;99.90
5806;DHT22;2929;50.810;8.342;2024-03-08T04:32:13;-1.60;99.90
5806;DHT22;2929;50.810;8.342;2024-03-08T04:34:41;-1.70;99.90
5806;DHT22;2929;50.810;8.342;2024-03-08T04:37:08;-1.70;99.90
5806;DHT22;2929;50.810;8.342;2024-03-08T04:39:39;-1.70;99.90
5806;DHT22;2929;50.810;8.342;2024-03-08T04:42:06;-1.70;99.90
5806;DHT22;2929;50.810;8.342;2024-03-08T04:44:36;-1.80;99.90
5806;DHT22;2929;50.810;8.342;2024-03-08T04:47:03;-1.80;99.90
5806;DHT22;2929;50.810;8.342;2024-03-08T04:49:31;-1.70;99.90
5806;DHT22;2929;50.810;8.342;2024-03-08T04:52:02;-1.80;99.90
5806;DHT22;2929;50.810;8.342;2024-03-08T04:54:29;-1.70;99.90
5806;DHT22;2929;50.810;8.342;2024-03-08T04:56:56;-1.70;99.90
5806;DHT22;2929;50.810;8.342;2024-03-08T04:59:25;-1.60;99.90
5806;DHT22;2929;50.810;8.342;2024-03-08T05:01:52;-1.50;99.90
5806;DHT22;2929;50.810;8.342;2024-03-08T05:04:19;-1.60;99.90
5806;DHT22;2929;50.810;8.342;2024-03-08T05:06:46;-1.70;99.90
5806;DHT22;2929;50.810;8.342;2024-03-08T05:09:15;-1.70;99.90
5806;DHT22;2929;50.810;8.342;2024-03-08T05:11:45;-1.70;99.90
5806;DHT22;2929;50.810;8.342;2024-03-08T05:14:13;-1.80;99.90
5806;DHT22;2929;50.810;8.342;2024-03-08T05:16:42;-1.90;99.90
5806;DHT22;2929;50.810;8.342;2024-03-08T05:19:09;-1.90;99.90
5806;DHT22;2929;50.810;8.342;2024-03-08T05:21:36;-1.90;99.90
5806;DHT22;2929;50.810;8.342;2024-03-08T05:24:06;-1.90;99.90
5806;DHT22;2929;50.810;8.342;2024-03-08T05:26:34;-1.90;99.90
5806;DHT22;2929;50.810;8.342;2024-03-08T05:29:03;-2.00;99.90
5806;DHT22;2929;50.810;8.342;2024-03-08T05:31:36;-2.00;99.90
5806;DHT22;2929;50.810;8.342;2024-03-08T05:34:05;-2.00;99.90
5806;DHT22;2929;50.810;8.342;2024-03-08T05:36:35;-1.90;99.90
5806;DHT22;2929;50.810;8.342;2024-03-08T05:39:02;-1.90;99.90
5806;DHT22;2929;50.810;8.342;2024-03-08T05:41:31;-1.80;99.90
5806;DHT22;2929;50.810;8.342;2024-03-08T05:44:00;-1.80;99.90
5806;DHT22;2929;50.810;8.342;2024-03-08T05:46:27;-1.90;99.90
5806;DHT22;2929;50.810;8.342;2024-03-08T05:48:53;-1.90;99.90
5806;DHT22;2929;50.810;8.342;2024-03-08T05:51:23;-2.00;99.90
5806;DHT22;2929;50.810;8.342;2024-03-08T05:53:51;-1.90;99.90
5806;DHT22;2929;50.810;8.342;2024-03-08T05:56:18;-1.90;99.90
5806;DHT22;2929;50.810;8.342;2024-03-08T05:58:45;-1.90;99.90
5806;DHT22;2929;50.810;8.342;2024-03-08T06:01:15;-2.00;99.90
5806;DHT22;2929;50.810;8.342;2024-03-08T06:03:42;-2.00;99.90
5806;DHT22;2929;50.810;8.342;2024-03-08T06:06:11;-1.90;99.90
5806;DHT22;2929;50.810;8.342;2024-03-08T06:08:38;-1.80;99.90
5806;DHT22;2929;50.810;8.342;2024-03-08T06:11:06;-1.80;99.90
5806;DHT22;2929;50.810;8.342;2024-03-08T06:13:33;-1.70;99.90
5806;DHT22;2929;50.810;8.342;2024-03-08T06:16:00;-1.70;99.90
5806;DHT22;2929;50.810;8.342;2024-03-08T06:18:31;-1.60;99.90
5806;DHT22;2929;50.810;8.342;2024-03-08T06:20:58;-1.60;99.90
5806;DHT22;2929;50.810;8.342;2024-03-08T06:23:25;-1.60;99.90
5806;DHT22;2929;50.810;8.342;2024-03-08T06:25:53;-1.60;99.90
5806;DHT22;2929;50.810;8.342;2024-03-08T06:28:20;-1.50;99.90
5806;DHT22;2929;50.810;8.342;2024-03-08T06:30:47;-1.50;99.90
5806;DHT22;2929;50.810;8.342;2024-03-08T06:33:14;-1.50;99.90
5806;DHT22;2929;50.810;8.342;2024-03-08T06:35:43;-1.50;99.90
5806;DHT22;2929;50.810;8.342;2024-03-08T06:38:10;-1.50;99.90
5806;DHT22;2929;50.810;8.342;2024-03-08T06:40:38;-1.50;99.90
5806;DHT22;2929;50.810;8.342;2024-03-08T06:43:06;-1.40;99.90
5806;DHT22;2929;50.810;8.342;2024-03-08T06:45:33;-1.40;99.90
5806;DHT22;2929;50.810;8.342;2024-03-08T06:48:03;-1.50;99.90
5806;DHT22;2929;50.810;8.342;2024-03-08T06:50:35;-1.50;99.90
5806;DHT22;2929;50.810;8.342;2024-03-08T06:53:04;-1.40;99.90
5806;DHT22;2929;50.810;8.342;2024-03-08T06:55:31;-1.40;99.90
5806;DHT22;2929;50.810;8.342;2024-03-08T06:57:59;-1.20;99.90
5806;DHT22;2929;50.810;8.342;2024-03-08T07:00:26;-1.20;99.90
5806;DHT22;2929;50.810;8.342;2024-03-08T07:02:55;-1.10;99.90
5806;DHT22;2929;50.810;8.342;2024-03-08T07:05:26;-1.10;99.90
5806;DHT22;2929;50.810;8.342;2024-03-08T07:07:53;-1.10;99.90
5806;DHT22;2929;50.810;8.342;2024-03-08T07:10:22;-0.90;99.90
5806;DHT22;2929;50.810;8.342;2024-03-08T07:12:50;-0.70;99.90
5806;DHT22;2929;50.810;8.342;2024-03-08T07:15:17;-0.70;99.90
5806;DHT22;2929;50.810;8.342;2024-03-08T07:17:45;-0.60;99.90
5806;DHT22;2929;50.810;8.342;2024-03-08T07:20:12;-0.60;99.90
5806;DHT22;2929;50.810;8.342;2024-03-08T07:22:41;-0.50;99.90
5806;DHT22;2929;50.810;8.342;2024-03-08T07:25:08;-0.50;99.90
5806;DHT22;2929;50.810;8.342;2024-03-08T07:27:47;-0.40;99.90
5806;DHT22;2929;50.810;8.342;2024-03-08T07:30:15;-0.20;99.90
5806;DHT22;2929;50.810;8.342;2024-03-08T07:33:04;-0.10;99.90
5806;DHT22;2929;50.810;8.342;2024-03-08T07:35:32;0.00;99.90
5806;DHT22;2929;50.810;8.342;2024-03-08T07:38:03;0.10;99.90
5806;DHT22;2929;50.810;8.342;2024-03-08T07:40:31;0.20;99.90
5806;DHT22;2929;50.810;8.342;2024-03-08T07:42:59;0.30;99.90
5806;DHT22;2929;50.810;8.342;2024-03-08T07:45:30;0.40;99.90
5806;DHT22;2929;50.810;8.342;2024-03-08T07:48:00;0.60;99.90
5806;DHT22;2929;50.810;8.342;2024-03-08T07:50:30;0.70;99.90
5806;DHT22;2929;50.810;8.342;2024-03-08T07:52:59;0.80;99.90
5806;DHT22;2929;50.810;8.342;2024-03-08T07:55:27;0.90;99.90
5806;DHT22;2929;50.810;8.342;2024-03-08T07:57:54;1.00;99.90
5806;DHT22;2929;50.810;8.342;2024-03-08T08:00:22;1.00;99.90
5806;DHT22;2929;50.810;8.342;2024-03-08T08:02:50;1.20;99.90
5806;DHT22;2929;50.810;8.342;2024-03-08T08:05:17;1.30;99.90
5806;DHT22;2929;50.810;8.342;2024-03-08T08:07:44;1.40;99.90
5806;DHT22;2929;50.810;8.342;2024-03-08T08:10:12;1.50;99.90
5806;DHT22;2929;50.810;8.342;2024-03-08T08:12:44;1.60;99.90
5806;DHT22;2929;50.810;8.342;2024-03-08T08:15:11;1.70;99.90
5806;DHT22;2929;50.810;8.342;2024-03-08T08:17:40;1.80;99.90
5806;DHT22;2929;50.810;8.342;2024-03-08T08:20:10;1.90;99.90
5806;DHT22;2929;50.810;8.342;2024-03-08T08:22:37;2.00;99.90
5806;DHT22;2929;50.810;8.342;2024-03-08T08:25:06;2.10;99.90
5806;DHT22;2929;50.810;8.342;2024-03-08T08:27:33;2.10;99.90
5806;DHT22;2929;50.810;8.342;2024-03-08T08:30:02;2.20;99.90
5806;DHT22;2929;50.810;8.342;2024-03-08T08:32:33;2.30;99.90
5806;DHT22;2929;50.810;8.342;2024-03-08T08:35:03;2.40;99.90
5806;DHT22;2929;50.810;8.342;2024-03-08T08:37:31;2.40;99.90
5806;DHT22;2929;50.810;8.342;2024-03-08T08:39:58;2.50;99.90
5806;DHT22;2929;50.810;8.342;2024-03-08T08:42:31;2.80;99.90
5806;DHT22;2929;50.810;8.342;2024-03-08T08:44:58;2.80;99.90
5806;DHT22;2929;50.810;8.342;2024-03-08T08:47:25;2.80;99.90
5806;DHT22;2929;50.810;8.342;2024-03-08T08:49:51;3.00;99.90
5806;DHT22;2929;50.810;8.342;2024-03-08T08:52:21;3.10;99.90
5806;DHT22;2929;50.810;8.342;2024-03-08T08:54:48;3.10;99.90
5806;DHT22;2929;50.810;8.342;2024-03-08T08:57:16;3.30;99.90
5806;DHT22;2929;50.810;8.342;2024-03-08T08:59:43;3.30;99.90
5806;DHT22;2929;50.810;8.342;2024-03-08T09:02:11;3.40;99.90
5806;DHT22;2929;50.810;8.342;2024-03-08T09:04:38;3.60;99.90
5806;DHT22;2929;50.810;8.342;2024-03-08T09:07:05;3.50;99.90
5806;DHT22;2929;50.810;8.342;2024-03-08T09:09:34;3.60;99.90
5806;DHT22;2929;50.810;8.342;2024-03-08T09:12:01;3.70;99.90
5806;DHT22;2929;50.810;8.342;2024-03-08T09:14:28;3.90;99.90
5806;DHT22;2929;50.810;8.342;2024-03-08T09:16:55;3.90;99.90
5806;DHT22;2929;50.810;8.342;2024-03-08T09:19:23;4.00;99.90
5806;DHT22;2929;50.810;8.342;2024-03-08T09:21:51;4.00;99.90
5806;DHT22;2929;50.810;8.342;2024-03-08T09:24:18;4.10;99.90
5806;DHT22;2929;50.810;8.342;2024-03-08T09:26:46;4.20;99.90
5806;DHT22;2929;50.810;8.342;2024-03-08T09:29:13;4.30;99.90
5806;DHT22;2929;50.810;8.342;2024-03-08T09:31:41;4.30;99.90
5806;DHT22;2929;50.810;8.342;2024-03-08T09:34:07;4.40;99.90
5806;DHT22;2929;50.810;8.342;2024-03-08T09:36:35;4.40;99.90
5806;DHT22;2929;50.810;8.342;2024-03-08T09:39:02;4.40;99.90
5806;DHT22;2929;50.810;8.342;2024-03-08T09:41:33;4.50;99.90
5806;DHT22;2929;50.810;8.342;2024-03-08T09:44:01;4.70;99.90
5806;DHT22;2929;50.810;8.342;2024-03-08T09:46:29;4.80;99.90
5806;DHT22;2929;50.810;8.342;2024-03-08T09:48:57;4.80;99.90
5806;DHT22;2929;50.810;8.342;2024-03-08T09:51:28;4.90;99.90
5806;DHT22;2929;50.810;8.342;2024-03-08T09:53:56;5.10;99.90
5806;DHT22;2929;50.810;8.342;2024-03-08T09:56:25;5.20;99.90
5806;DHT22;2929;50.810;8.342;2024-03-08T09:58:53;5.30;99.90
5806;DHT22;2929;50.810;8.342;2024-03-08T10:01:46;5.30;99.90
5806;DHT22;2929;50.810;8.342;2024-03-08T10:04:16;5.30;99.90
5806;DHT22;2929;50.810;8.342;2024-03-08T10:06:47;5.40;99.90
5806;DHT22;2929;50.810;8.342;2024-03-08T10:09:14;5.40;99.90
5806;DHT22;2929;50.810;8.342;2024-03-08T10:11:42;5.50;99.90
5806;DHT22;2929;50.810;8.342;2024-03-08T10:14:09;5.50;99.90
5806;DHT22;2929;50.810;8.342;2024-03-08T10:16:38;5.40;99.90
5806;DHT22;2929;50.810;8.342;2024-03-08T10:19:07;5.60;99.90
5806;DHT22;2929;50.810;8.342;2024-03-08T10:21:35;5.50;99.90
5806;DHT22;2929;50.810;8.342;2024-03-08T10:24:02;5.70;99.90
5806;DHT22;2929;50.810;8.342;2024-03-08T10:26:30;5.80;99.90
5806;DHT22;2929;50.810;8.342;2024-03-08T10:28:57;5.90;99.90
5806;DHT22;2929;50.810;8.342;2024-03-08T10:31:24;6.20;99.90
5806;DHT22;2929;50.810;8.342;2024-03-08T10:33:51;6.30;99.90
5806;DHT22;2929;50.810;8.342;2024-03-08T10:36:19;6.50;99.90
5806;DHT22;2929;50.810;8.342;2024-03-08T10:38:46;6.50;99.90
5806;DHT22;2929;50.810;8.342;2024-03-08T10:41:14;6.60;99.90
5806;DHT22;2929;50.810;8.342;2024-03-08T10:43:57;6.70;99.90
5806;DHT22;2929;50.810;8.342;2024-03-08T10:46:43;6.80;99.90
5806;DHT22;2929;50.810;8.342;2024-03-08T10:49:17;6.90;99.90
5806;DHT22;2929;50.810;8.342;2024-03-08T10:51:50;7.00;99.90
5806;DHT22;2929;50.810;8.342;2024-03-08T10:54:18;7.20;99.90
5806;DHT22;2929;50.810;8.342;2024-03-08T10:56:48;7.40;99.90
5806;DHT22;2929;50.810;8.342;2024-03-08T10:59:17;7.50;99.90
5806;DHT22;2929;50.810;8.342;2024-03-08T11:01:44;7.60;99.90
5806;DHT22;2929;50.810;8.342;2024-03-08T11:04:11;7.40;99.90
5806;DHT22;2929;50.810;8.342;2024-03-08T11:06:42;7.50;99.90
5806;DHT22;2929;50.810;8.342;2024-03-08T11:09:27;7.80;99.90
5806;DHT22;2929;50.810;8.342;2024-03-08T11:12:19;8.00;99.90
5806;DHT22;2929;50.810;8.342;2024-03-08T11:14:47;8.00;99.90
5806;DHT22;2929;50.810;8.342;2024-03-08T11:17:15;8.10;99.90
5806;DHT22;2929;50.810;8.342;2024-03-08T11:19:48;8.30;99.90
5806;DHT22;2929;50.810;8.342;2024-03-08T11:22:22;8.40;99.90
5806;DHT22;2929;50.810;8.342;2024-03-08T11:24:57;8.50;99.90
5806;DHT22;2929;50.810;8.342;2024-03-08T11:27:29;8.40;99.90
5806;DHT22;2929;50.810;8.342;2024-03-08T11:30:00;8.30;99.90
5806;DHT22;2929;50.810;8.342;2024-03-08T11:32:37;8.20;99.90
5806;DHT22;2929;50.810;8.342;2024-03-08T11:35:06;8.20;99.90
5806;DHT22;2929;50.810;8.342;2024-03-08T11:37:37;8.40;99.90
5806;DHT22;2929;50.810;8.342;2024-03-08T11:40:12;8.90;99.90
5806;DHT22;2929;50.810;8.342;2024-03-08T11:42:44;8.70;99.90
5806;DHT22;2929;50.810;8.342;2024-03-08T11:45:13;8.90;99.90
5806;DHT22;2929;50.810;8.342;2024-03-08T11:47:42;8.70;99.90
5806;DHT22;2929;50.810;8.342;2024-03-08T11:50:12;9.10;99.90
5806;DHT22;2929;50.810;8.342;2024-03-08T11:52:39;9.40;99.90
5806;DHT22;2929;50.810;8.342;2024-03-08T11:55:08;9.80;99.90
5806;DHT22;2929;50.810;8.342;2024-03-08T11:57:36;10.00;99.90
5806;DHT22;2929;50.810;8.342;2024-03-08T12:00:04;10.30;99.90
5806;DHT22;2929;50.810;8.342;2024-03-08T12:02:35;10.40;99.90
5806;DHT22;2929;50.810;8.342;2024-03-08T12:05:07;10.50;99.90
5806;DHT22;2929;50.810;8.342;2024-03-08T12:07:35;10.60;99.90
5806;DHT22;2929;50.810;8.342;2024-03-08T12:10:15;10.80;99.90
5806;DHT22;2929;50.810;8.342;2024-03-08T12:12:45;11.10;99.90
5806;DHT22;2929;50.810;8.342;2024-03-08T12:15:13;11.50;99.40
5806;DHT22;2929;50.810;8.342;2024-03-08T12:17:43;11.50;98.80
5806;DHT22;2929;50.810;8.342;2024-03-08T12:20:15;11.40;98.80
5806;DHT22;2929;50.810;8.342;2024-03-08T12:22:43;11.30;98.60
5806;DHT22;2929;50.810;8.342;2024-03-08T12:25:11;11.30;98.60
5806;DHT22;2929;50.810;8.342;2024-03-08T12:27:39;11.00;98.70
5806;DHT22;2929;50.810;8.342;2024-03-08T12:30:20;11.10;99.10
5806;DHT22;2929;50.810;8.342;2024-03-08T12:32:53;11.50;99.30
5806;DHT22;2929;50.810;8.342;2024-03-08T12:35:21;11.30;98.50
5806;DHT22;2929;50.810;8.342;2024-03-08T12:37:50;11.20;99.30
5806;DHT22;2929;50.810;8.342;2024-03-08T12:40:17;11.20;98.60
5806;DHT22;2929;50.810;8.342;2024-03-08T12:42:45;11.10;98.60
5806;DHT22;2929;50.810;8.342;2024-03-08T12:45:14;11.10;99.00
5806;DHT22;2929;50.810;8.342;2024-03-08T12:47:42;11.70;98.90
5806;DHT22;2929;50.810;8.342;2024-03-08T12:50:10;11.40;98.80
5806;DHT22;2929;50.810;8.342;2024-03-08T12:52:37;11.50;97.90
5806;DHT22;2929;50.810;8.342;2024-03-08T12:55:05;11.60;98.10
5806;DHT22;2929;50.810;8.342;2024-03-08T12:57:34;11.80;97.80
5806;DHT22;2929;50.810;8.342;2024-03-08T13:00:02;12.00;98.10
5806;DHT22;2929;50.810;8.342;2024-03-08T13:02:43;11.60;97.30
5806;DHT22;2929;50.810;8.342;2024-03-08T13:05:18;11.30;98.90
5806;DHT22;2929;50.810;8.342;2024-03-08T13:07:46;12.20;98.20
5806;DHT22;2929;50.810;8.342;2024-03-08T13:10:13;12.30;96.80
5806;DHT22;2929;50.810;8.342;2024-03-08T13:12:41;12.70;96.30
5806;DHT22;2929;50.810;8.342;2024-03-08T13:15:09;12.50;96.30
5806;DHT22;2929;50.810;8.342;2024-03-08T13:17:37;12.40;96.20
5806;DHT22;2929;50.810;8.342;2024-03-08T13:20:08;12.80;96.70
5806;DHT22;2929;50.810;8.342;2024-03-08T13:22:35;12.90;95.40
5806;DHT22;2929;50.810;8.342;2024-03-08T13:25:02;13.40;95.80
5806;DHT22;2929;50.810;8.342;2024-03-08T13:27:33;14.10;94.30
5806;DHT22;2929;50.810;8.342;2024-03-08T13:30:10;14.10;94.40
5806;DHT22;2929;50.810;8.342;2024-03-08T13:32:51;13.90;93.90
5806;DHT22;2929;50.810;8.342;2024-03-08T13:35:35;13.30;94.40
5806;DHT22;2929;50.810;8.342;2024-03-08T13:38:28;13.00;94.50
5806;DHT22;2929;50.810;8.342;2024-03-08T13:41:08;13.40;93.70
5806;DHT22;2929;50.810;8.342;2024-03-08T13:43:37;13.20;93.50
5806;DHT22;2929;50.810;8.342;2024-03-08T13:46:06;13.70;94.70
5806;DHT22;2929;50.810;8.342;2024-03-08T13:48:34;13.90;93.70
5806;DHT22;2929;50.810;8.342;2024-03-08T13:51:04;13.80;92.60
5806;DHT22;2929;50.810;8.342;2024-03-08T13:53:32;13.80;92.90
5806;DHT22;2929;50.810;8.342;2024-03-08T13:56:02;13.80;93.50
5806;DHT22;2929;50.810;8.342;2024-03-08T13:58:29;14.00;93.50
5806;DHT22;2929;50.810;8.342;2024-03-08T14:00:56;13.70;92.40
5806;DHT22;2929;50.810;8.342;2024-03-08T14:03:23;13.80;93.60
5806;DHT22;2929;50.810;8.342;2024-03-08T14:05:50;13.70;92.80
5806;DHT22;2929;50.810;8.342;2024-03-08T14:08:19;13.50;93.40
5806;DHT22;2929;50.810;8.342;2024-03-08T14:10:46;13.70;93.90
5806;DHT22;2929;50.810;8.342;2024-03-08T14:13:14;13.80;93.60
5806;DHT22;2929;50.810;8.342;2024-03-08T14:15:44;14.10;92.50
5806;DHT22;2929;50.810;8.342;2024-03-08T14:18:11;13.70;92.40
5806;DHT22;2929;50.810;8.342;2024-03-08T14:20:39;13.90;92.50
5806;DHT22;2929;50.810;8.342;2024-03-08T14:23:07;13.20;93.00
5806;DHT22;2929;50.810;8.342;2024-03-08T14:25:36;13.40;93.00
5806;DHT22;2929;50.810;8.342;2024-03-08T14:28:03;13.80;93.50
5806;DHT22;2929;50.810;8.342;2024-03-08T14:30:33;13.00;92.80
5806;DHT22;2929;50.810;8.342;2024-03-08T14:33:07;12.80;93.20
5806;DHT22;2929;50.810;8.342;2024-03-08T14:35:35;13.30;92.80
5806;DHT22;2929;50.810;8.342;2024-03-08T14:38:02;13.50;92.80
5806;DHT22;2929;50.810;8.342;2024-03-08T14:40:30;13.40;92.30
5806;DHT22;2929;50.810;8.342;2024-03-08T14:42:58;13.50;92.60
5806;DHT22;2929;50.810;8.342;2024-03-08T14:45:26;13.80;92.90
5806;DHT22;2929;50.810;8.342;2024-03-08T14:47:53;13.50;91.90
5806;DHT22;2929;50.810;8.342;2024-03-08T14:50:21;13.40;92.20
5806;DHT22;2929;50.810;8.342;2024-03-08T14:52:49;13.50;92.60
5806;DHT22;2929;50.810;8.342;2024-03-08T14:55:17;13.50;91.60
5806;DHT22;2929;50.810;8.342;2024-03-08T14:57:47;12.90;92.60
5806;DHT22;2929;50.810;8.342;2024-03-08T15:00:19;13.30;93.20
5806;DHT22;2929;50.810;8.342;2024-03-08T15:02:52;13.60;92.20
5806;DHT22;2929;50.810;8.342;2024-03-08T15:05:20;14.10;91.40
5806;DHT22;2929;50.810;8.342;2024-03-08T15:07:52;14.60;91.40
5806;DHT22;2929;50.810;8.342;2024-03-08T15:10:19;15.10;90.20
5806;DHT22;2929;50.810;8.342;2024-03-08T15:12:50;15.60;88.30
5806;DHT22;2929;50.810;8.342;2024-03-08T15:15:22;16.70;87.20
5806;DHT22;2929;50.810;8.342;2024-03-08T15:17:50;16.50;85.00
5806;DHT22;2929;50.810;8.342;2024-03-08T15:20:19;15.90;85.00
5806;DHT22;2929;50.810;8.342;2024-03-08T15:22:51;16.00;84.30
5806;DHT22;2929;50.810;8.342;2024-03-08T15:25:20;15.40;85.10
5806;DHT22;2929;50.810;8.342;2024-03-08T15:27:51;15.80;87.40
5806;DHT22;2929;50.810;8.342;2024-03-08T15:30:19;15.20;86.80
5806;DHT22;2929;50.810;8.342;2024-03-08T15:32:49;15.00;87.40
5806;DHT22;2929;50.810;8.342;2024-03-08T15:35:17;15.90;86.20
5806;DHT22;2929;50.810;8.342;2024-03-08T15:37:44;16.00;85.70
5806;DHT22;2929;50.810;8.342;2024-03-08T15:40:13;15.60;85.00
5806;DHT22;2929;50.810;8.342;2024-03-08T15:42:54;15.50;84.50
5806;DHT22;2929;50.810;8.342;2024-03-08T15:45:22;16.10;84.50
5806;DHT22;2929;50.810;8.342;2024-03-08T15:47:51;16.50;82.30
5806;DHT22;2929;50.810;8.342;2024-03-08T15:50:18;16.40;82.20
5806;DHT22;2929;50.810;8.342;2024-03-08T15:52:48;16.20;81.80
5806;DHT22;2929;50.810;8.342;2024-03-08T15:55:16;15.60;83.20
5806;DHT22;2929;50.810;8.342;2024-03-08T15:57:46;15.50;84.10
5806;DHT22;2929;50.810;8.342;2024-03-08T16:00:15;15.80;83.80
5806;DHT22;2929;50.810;8.342;2024-03-08T16:03:00;15.10;84.00
5806;DHT22;2929;50.810;8.342;2024-03-08T16:05:28;14.80;85.80
5806;DHT22;2929;50.810;8.342;2024-03-08T16:07:55;14.80;85.60
5806;DHT22;2929;50.810;8.342;2024-03-08T16:10:22;14.70;86.60
5806;DHT22;2929;50.810;8.342;2024-03-08T16:12:51;14.60;86.60
5806;DHT22;2929;50.810;8.342;2024-03-08T16:15:18;14.70;86.70
5806;DHT22;2929;50.810;8.342;2024-03-08T16:17:46;14.70;86.30